createdAt,value
2022-11-17T00:00:24.893Z,98392.22
2022-11-17T00:02:52.833Z,98397.63
2022-11-17T00:05:21.049Z,98399.47
2022-11-17T00:07:50.083Z,98394.38
2022-11-17T00:10:18.276Z,98395.16
2022-11-17T00:13:05.133Z,98409.47
2022-11-17T00:15:33.042Z,98420.25
2022-11-17T00:18:18.479Z,98411.34
2022-11-17T00:21:04.055Z,98412.97
2022-11-17T00:23:47.451Z,98408.13
2022-11-17T00:26:16.453Z,98404.63
2022-11-17T00:28:45.779Z,98396.28
2022-11-17T00:31:42.381Z,98397.34
2022-11-17T00:34:13.484Z,98407.59
2022-11-17T00:36:42.261Z,98406.56
2022-11-17T00:39:10.555Z,98413.56
2022-11-17T00:41:38.499Z,98415.19
2022-11-17T00:44:07.947Z,98420.59
2022-11-17T00:46:36.072Z,98429.22
2022-11-17T00:49:03.993Z,98431.91
2022-11-17T00:51:31.922Z,98430.84
2022-11-17T00:53:59.885Z,98437.84
2022-11-17T00:56:27.971Z,98441.91
2022-11-17T00:58:55.928Z,98443.81
2022-11-17T01:01:25.310Z,98439.22
2022-11-17T01:04:02.963Z,98444.38
2022-11-17T01:06:31.848Z,98432.75
2022-11-17T01:09:00.583Z,98428.19
2022-11-17T01:11:28.584Z,98439.78
2022-11-17T01:13:57.342Z,98435.19
2022-11-17T01:16:26.764Z,98446.78
2022-11-17T01:18:54.751Z,98444.66
2022-11-17T01:21:23.456Z,98447.91
2022-11-17T01:23:52.274Z,98452.50
2022-11-17T01:26:20.888Z,98452.50
2022-11-17T01:28:49.006Z,98455.19
2022-11-17T01:31:17.773Z,98459.50
2022-11-17T01:33:47.149Z,98461.13
2022-11-17T01:36:16.045Z,98457.38
2022-11-17T01:38:44.048Z,98464.38
2022-11-17T01:41:15.048Z,98455.19
2022-11-17T01:43:44.033Z,98464.13
2022-11-17T01:46:26.112Z,98473.03
2022-11-17T01:48:56.055Z,98461.16
2022-11-17T01:51:23.994Z,98466.56
2022-11-17T01:53:51.991Z,98460.09
2022-11-17T01:56:21.048Z,98452.81
2022-11-17T01:58:51.496Z,98451.72
2022-11-17T02:01:19.425Z,98447.97
2022-11-17T02:03:47.465Z,98448.78
2022-11-17T02:06:18.267Z,98448.78
2022-11-17T02:08:47.276Z,98450.41
2022-11-17T02:11:17.629Z,98452.03
2022-11-17T02:13:45.570Z,98471.44
2022-11-17T02:16:13.532Z,98472.53
2022-11-17T02:18:41.569Z,98483.09
2022-11-17T02:21:42.995Z,98483.88
2022-11-17T02:24:51.925Z,98480.09
2022-11-17T02:27:52.937Z,98485.50
2022-11-17T02:30:21.254Z,98490.91
2022-11-17T02:32:57.610Z,98488.75
2022-11-17T02:35:27.339Z,98494.16
2022-11-17T02:38:00.232Z,98497.94
2022-11-17T02:40:30.705Z,98495.81
2022-11-17T02:43:18.187Z,98495.81
2022-11-17T02:45:48.650Z,98509.03
2022-11-17T02:48:18.930Z,98502.84
2022-11-17T02:50:47.722Z,98509.03
2022-11-17T02:53:15.621Z,98509.84
2022-11-17T02:55:49.445Z,98517.69
2022-11-17T02:58:18.794Z,98520.41
2022-11-17T03:00:51.985Z,98526.59
2022-11-17T03:03:25.003Z,98518.50
2022-11-17T03:05:57.730Z,98523.91
2022-11-17T03:08:32.988Z,98523.63
2022-11-17T03:11:02.638Z,98530.91
2022-11-17T03:13:37.317Z,98527.97
2022-11-17T03:16:11.149Z,98527.97
2022-11-17T03:18:41.662Z,98545.78
2022-11-17T03:21:12.102Z,98543.06
2022-11-17T03:23:42.249Z,98531.72
2022-11-17T03:26:11.720Z,98542.84
2022-11-17T03:28:42.552Z,98544.97
2022-11-17T03:31:10.492Z,98549.03
2022-11-17T03:33:38.679Z,98555.25
2022-11-17T03:36:08.439Z,98556.31
2022-11-17T03:38:37.631Z,98556.88
2022-11-17T03:41:05.844Z,98557.94
2022-11-17T03:43:34.034Z,98560.63
2022-11-17T03:46:04.967Z,98558.50
2022-11-17T03:48:35.870Z,98557.69
2022-11-17T03:51:06.560Z,98550.41
2022-11-17T03:53:34.993Z,98553.09
2022-11-17T03:56:05.399Z,98555.78
2022-11-17T03:58:34.250Z,98553.09
2022-11-17T04:01:03.548Z,98549.31
2022-11-17T04:03:32.129Z,98550.41
2022-11-17T04:06:00.287Z,98553.91
2022-11-17T04:08:30.595Z,98554.72
2022-11-17T04:11:15.880Z,98557.41
2022-11-17T04:14:01.044Z,98560.09
2022-11-17T04:16:30.406Z,98559.31
2022-11-17T04:18:59.195Z,98562.00
2022-11-17T04:21:27.269Z,98569.28
2022-11-17T04:23:56.109Z,98581.97
2022-11-17T04:26:41.296Z,98595.47
2022-11-17T04:29:09.153Z,98584.69
2022-11-17T04:31:38.449Z,98584.69
2022-11-17T04:34:06.904Z,98573.06
2022-11-17T04:36:36.895Z,98578.47
2022-11-17T04:39:05.257Z,98586.56
2022-11-17T04:41:50.338Z,98591.97
2022-11-17T04:44:18.740Z,98593.03
2022-11-17T04:46:48.011Z,98590.31
2022-11-17T04:49:16.158Z,98608.16
2022-11-17T04:51:44.200Z,98610.00
2022-11-17T04:54:13.003Z,98613.81
2022-11-17T04:56:40.952Z,98615.41
2022-11-17T04:59:08.971Z,98613.56
2022-11-17T05:01:36.905Z,98614.59
2022-11-17T05:04:07.067Z,98619.19
2022-11-17T05:06:35.633Z,98617.59
2022-11-17T05:09:05.304Z,98605.69
2022-11-17T05:11:50.347Z,98595.16
2022-11-17T05:14:19.655Z,98602.19
2022-11-17T05:17:09.535Z,98613.56
2022-11-17T05:19:40.576Z,98610.84
2022-11-17T05:22:29.572Z,98616.25
2022-11-17T05:24:56.500Z,98620.81
2022-11-17T05:27:24.508Z,98619.75
2022-11-17T05:29:52.432Z,98615.16
2022-11-17T05:32:20.315Z,98627.06
2022-11-17T05:34:49.628Z,98635.94
2022-11-17T05:37:17.513Z,98628.38
2022-11-17T05:39:45.438Z,98651.06
2022-11-17T05:42:13.365Z,98659.97
2022-11-17T05:44:41.302Z,98664.84
2022-11-17T05:47:09.253Z,98670.22
2022-11-17T05:49:37.117Z,98667.25
2022-11-17T05:52:06.710Z,98666.44
2022-11-17T05:54:34.623Z,98681.56
2022-11-17T05:57:03.542Z,98683.19
2022-11-17T05:59:32.729Z,98678.84
2022-11-17T06:02:01.731Z,98687.53
2022-11-17T06:04:29.839Z,98694.81
2022-11-17T06:06:59.621Z,98682.13
2022-11-17T06:09:29.785Z,98690.22
2022-11-17T06:12:01.061Z,98689.13
2022-11-17T06:14:33.397Z,98701.56
2022-11-17T06:17:02.898Z,98699.94
2022-11-17T06:19:33.485Z,98705.09
2022-11-17T06:22:16.584Z,98708.88
2022-11-17T06:24:46.022Z,98717.78
2022-11-17T06:27:13.960Z,98719.91
2022-11-17T06:29:44.963Z,98715.31
2022-11-17T06:32:13.304Z,98724.22
2022-11-17T06:34:41.259Z,98719.91
2022-11-17T06:37:09.189Z,98726.13
2022-11-17T06:39:37.098Z,98729.91
2022-11-17T06:42:06.530Z,98741.50
2022-11-17T06:44:34.459Z,98735.28
2022-11-17T06:47:02.684Z,98734.47
2022-11-17T06:49:30.586Z,98744.47
2022-11-17T06:51:58.512Z,98733.69
2022-11-17T06:54:26.453Z,98747.97
2022-11-17T06:56:55.456Z,98758.78
2022-11-17T06:59:24.802Z,98764.16
2022-11-17T07:01:52.868Z,98761.47
2022-11-17T07:04:20.811Z,98763.91
2022-11-17T07:06:48.843Z,98754.19
2022-11-17T07:09:16.779Z,98756.06
2022-11-17T07:11:44.801Z,98763.09
2022-11-17T07:14:12.700Z,98770.09
2022-11-17T07:16:42.690Z,98776.34
2022-11-17T07:19:11.011Z,98768.25
2022-11-17T07:21:39.028Z,98769.88
2022-11-17T07:24:07.459Z,98776.63
2022-11-17T07:26:35.440Z,98771.25
2022-11-17T07:29:03.423Z,98768.31
2022-11-17T07:31:31.444Z,98770.16
2022-11-17T07:34:00.772Z,98774.50
2022-11-17T07:36:29.186Z,98786.91
2022-11-17T07:38:57.090Z,98785.88
2022-11-17T07:41:25.121Z,98777.25
2022-11-17T07:43:53.030Z,98780.53
2022-11-17T07:46:21.021Z,98794.03
2022-11-17T07:48:48.969Z,98802.13
2022-11-17T07:51:18.348Z,98802.13
2022-11-17T07:53:46.331Z,98792.13
2022-11-17T07:56:14.601Z,98791.84
2022-11-17T07:58:42.818Z,98796.22
2022-11-17T08:01:12.174Z,98804.84
2022-11-17T08:03:40.347Z,98807.31
2022-11-17T08:06:09.402Z,98802.72
2022-11-17T08:08:39.235Z,98804.34
2022-11-17T08:11:08.180Z,98802.47
2022-11-17T08:13:36.187Z,98809.75
2022-11-17T08:16:04.251Z,98801.38
2022-11-17T08:18:32.364Z,98798.69
2022-11-17T08:21:04.448Z,98795.97
2022-11-17T08:23:32.379Z,98798.13
2022-11-17T08:26:01.767Z,98798.13
2022-11-17T08:28:29.785Z,98785.47
2022-11-17T08:30:57.786Z,98790.84
2022-11-17T08:33:27.717Z,98799.75
2022-11-17T08:35:58.156Z,98798.69
2022-11-17T08:38:29.028Z,98805.97
2022-11-17T08:40:57.337Z,98808.69
2022-11-17T08:43:26.669Z,98813.00
2022-11-17T08:45:54.648Z,98810.06
2022-11-17T08:48:22.562Z,98814.41
2022-11-17T08:50:50.633Z,98814.19
2022-11-17T08:53:19.935Z,98824.72
2022-11-17T08:55:47.937Z,98824.72
2022-11-17T08:58:15.877Z,98828.78
2022-11-17T09:00:47.686Z,98827.41
2022-11-17T09:03:18.202Z,98832.50
2022-11-17T09:05:47.240Z,98833.59
2022-11-17T09:08:45.004Z,98836.59
2022-11-17T09:11:05.408Z,98837.41
2022-11-17T09:13:33.715Z,98835.50
2022-11-17T09:16:03.730Z,98845.50
2022-11-17T09:18:31.786Z,98841.19
2022-11-17T09:21:02.831Z,98837.97
2022-11-17T09:23:31.764Z,98840.16
2022-11-17T09:26:00.060Z,98848.81
2022-11-17T09:28:28.011Z,98844.00
2022-11-17T09:30:56.034Z,98849.63
2022-11-17T09:33:25.447Z,98848.59
2022-11-17T09:35:53.398Z,98841.34
2022-11-17T09:38:21.359Z,98840.81
2022-11-17T09:40:49.461Z,98846.22
2022-11-17T09:43:20.500Z,98832.16
2022-11-17T09:45:48.429Z,98826.75
2022-11-17T09:51:07.546Z,98822.72
2022-11-17T09:53:38.671Z,98815.97
2022-11-17T09:56:08.584Z,98808.16
2022-11-17T09:58:38.896Z,98804.44
2022-11-17T10:01:07.208Z,98810.88
2022-11-17T10:03:40.458Z,98807.88
2022-11-17T10:06:16.449Z,98799.78
2022-11-17T10:08:47.474Z,98801.97
2022-11-17T10:11:35.064Z,98806.88
2022-11-17T10:14:05.730Z,98799.84
2022-11-17T10:16:33.726Z,98795.53
2022-11-17T10:19:03.734Z,98793.41
2022-11-17T10:21:33.243Z,98788.81
2022-11-17T10:24:01.281Z,98787.19
2022-11-17T10:26:29.572Z,98787.97
2022-11-17T10:29:08.973Z,98780.34
2022-11-17T10:31:44.865Z,98782.56
2022-11-17T10:34:13.351Z,98779.09
2022-11-17T10:36:48.750Z,98779.38
2022-11-17T10:39:36.948Z,98779.13
2022-11-17T10:42:17.749Z,98770.78
2022-11-17T10:44:51.265Z,98774.53
2022-11-17T10:47:30.567Z,98767.25
2022-11-17T10:50:27.559Z,98776.69
2022-11-17T10:52:57.304Z,98776.16
2022-11-17T10:55:27.424Z,98768.00
2022-11-17T10:57:58.103Z,98776.03
2022-11-17T11:00:30.689Z,98780.34
2022-11-17T11:03:15.793Z,98780.34
2022-11-17T11:06:02.660Z,98790.34
2022-11-17T11:08:51.689Z,98787.88
2022-11-17T11:11:34.885Z,98782.75
2022-11-17T11:14:08.245Z,98783.81
2022-11-17T11:16:36.169Z,98781.38
2022-11-17T11:19:04.203Z,98771.69
2022-11-17T11:21:41.271Z,98781.75
2022-11-17T11:24:14.824Z,98772.31
2022-11-17T11:26:50.074Z,98780.97
2022-11-17T11:29:25.142Z,98778.84
2022-11-17T11:32:01.118Z,98776.94
2022-11-17T11:34:38.552Z,98778.28
2022-11-17T11:37:09.325Z,98769.88
2022-11-17T11:39:44.358Z,98772.53
2022-11-17T11:42:29.982Z,98778.41
2022-11-17T11:45:11.893Z,98777.59
2022-11-17T11:47:47.837Z,98774.34
2022-11-17T11:50:17.596Z,98770.59
2022-11-17T11:52:46.948Z,98775.47
2022-11-17T11:55:20.250Z,98771.41
2022-11-17T11:57:50.962Z,98767.31
2022-11-17T12:00:19.971Z,98752.72
2022-11-17T12:02:51.491Z,98761.41
2022-11-17T12:05:22.918Z,98762.22
2022-11-17T12:07:52.055Z,98761.41
2022-11-17T12:10:23.017Z,98759.78
2022-11-17T12:12:51.275Z,98765.19
2022-11-17T12:15:37.532Z,98771.41
2022-11-17T12:18:07.902Z,98763.00
2022-11-17T12:21:03.116Z,98758.66
2022-11-17T12:24:02.308Z,98763.25
2022-11-17T12:26:32.107Z,98757.28
2022-11-17T12:29:25.895Z,98757.56
2022-11-17T12:31:54.025Z,98757.56
2022-11-17T12:34:29.240Z,98752.97
2022-11-17T12:37:21.782Z,98755.91
2022-11-17T12:39:56.695Z,98746.44
2022-11-17T12:42:26.096Z,98753.72
2022-11-17T12:44:58.347Z,98758.88
2022-11-17T12:47:27.293Z,98760.78
2022-11-17T12:50:10.224Z,98754.06
2022-11-17T12:52:42.177Z,98752.16
2022-11-17T12:55:16.594Z,98755.09
2022-11-17T12:57:46.575Z,98754.28
2022-11-17T13:00:17.295Z,98759.69
2022-11-17T13:02:58.964Z,98762.16
2022-11-17T13:05:27.716Z,98765.91
2022-11-17T13:08:21.955Z,98772.38
2022-11-17T13:10:50.125Z,98775.59
2022-11-17T13:13:23.729Z,98765.06
2022-11-17T13:15:52.109Z,98766.13
2022-11-17T13:18:29.544Z,98759.91
2022-11-17T13:20:57.554Z,98760.97
2022-11-17T13:23:26.148Z,98759.09
2022-11-17T13:26:09.445Z,98756.66
2022-11-17T13:28:39.183Z,98757.72
2022-11-17T13:31:08.363Z,98754.19
2022-11-17T13:33:40.158Z,98752.59
2022-11-17T13:36:17.387Z,98756.34
2022-11-17T13:38:49.149Z,98757.44
2022-11-17T13:41:17.430Z,98756.28
2022-11-17T13:43:48.815Z,98760.06
2022-11-17T13:46:17.226Z,98764.66
2022-11-17T13:48:46.565Z,98770.31
2022-11-17T13:51:29.046Z,98772.44
2022-11-17T13:53:59.741Z,98771.91
2022-11-17T13:56:31.708Z,98787.28
2022-11-17T13:59:02.435Z,98783.22
2022-11-17T14:01:31.502Z,98785.91
2022-11-17T14:04:20.007Z,98791.56
2022-11-17T14:06:58.695Z,98788.28
2022-11-17T14:09:27.363Z,98793.13
2022-11-17T14:11:55.442Z,98797.72
2022-11-17T14:14:29.691Z,98799.84
2022-11-17T14:16:58.189Z,98795.53
2022-11-17T14:19:32.922Z,98795.78
2022-11-17T14:22:03.174Z,98793.34
2022-11-17T14:24:32.058Z,98792.53
2022-11-17T14:27:00.120Z,98787.66
2022-11-17T14:29:30.020Z,98786.00
2022-11-17T14:31:58.287Z,98796.00
2022-11-17T14:34:26.313Z,98792.72
2022-11-17T14:36:55.968Z,98789.47
2022-11-17T14:39:23.895Z,98795.13
2022-11-17T14:41:52.692Z,98795.38
2022-11-17T14:44:21.989Z,98792.09
2022-11-17T14:46:51.873Z,98786.69
2022-11-17T14:49:19.791Z,98790.47
2022-11-17T14:51:50.030Z,98800.47
2022-11-17T14:54:17.994Z,98793.41
2022-11-17T14:56:46.576Z,98803.41
2022-11-17T14:59:15.051Z,98799.06
2022-11-17T15:01:44.313Z,98800.13
2022-11-17T15:04:35.182Z,98802.00
2022-11-17T15:07:03.864Z,98800.13
2022-11-17T15:09:32.510Z,98803.88
2022-11-17T15:12:01.130Z,98803.88
2022-11-17T15:14:29.245Z,98793.59
2022-11-17T15:16:57.871Z,98781.19
2022-11-17T15:19:27.383Z,98783.31
2022-11-17T15:21:56.008Z,98795.72
2022-11-17T15:24:23.988Z,98795.72
2022-11-17T15:26:52.718Z,98801.38
2022-11-17T15:29:20.648Z,98799.75
2022-11-17T15:31:50.002Z,98806.22
2022-11-17T15:34:20.476Z,98806.22
2022-11-17T15:36:50.920Z,98809.97
2022-11-17T15:39:19.111Z,98796.75
2022-11-17T15:41:47.958Z,98799.94
2022-11-17T15:44:16.178Z,98791.84
2022-11-17T15:46:47.675Z,98796.69
2022-11-17T15:49:16.186Z,98799.38
2022-11-17T15:51:45.170Z,98785.31
2022-11-17T15:54:20.037Z,98776.66
2022-11-17T15:56:49.332Z,98788.28
2022-11-17T15:59:17.513Z,98780.44
2022-11-17T16:01:46.535Z,98785.25
2022-11-17T16:04:15.597Z,98793.34
2022-11-17T16:06:45.407Z,98790.91
2022-11-17T16:09:15.379Z,98791.72
2022-11-17T16:11:45.128Z,98795.47
2022-11-17T16:14:14.992Z,98799.25
2022-11-17T16:16:45.056Z,98805.97
2022-11-17T16:19:13.057Z,98801.38
2022-11-17T16:21:41.660Z,98810.53
2022-11-17T16:24:11.535Z,98819.72
2022-11-17T16:26:41.639Z,98814.31
2022-11-17T16:29:09.927Z,98821.84
2022-11-17T16:31:38.579Z,98822.88
2022-11-17T16:34:09.088Z,98829.34
2022-11-17T16:36:39.046Z,98826.09
2022-11-17T16:39:09.051Z,98829.88
2022-11-17T16:41:38.016Z,98830.91
2022-11-17T16:44:12.421Z,98826.59
2022-11-17T16:46:42.110Z,98833.88
2022-11-17T16:49:12.644Z,98831.97
2022-11-17T16:51:40.790Z,98828.72
2022-11-17T16:54:12.238Z,98833.28
2022-11-17T16:56:40.333Z,98840.56
2022-11-17T16:59:13.197Z,98847.28
2022-11-17T17:01:41.282Z,98842.69
2022-11-17T17:04:11.041Z,98837.56
2022-11-17T17:06:40.323Z,98837.81
2022-11-17T17:09:09.425Z,98835.13
2022-11-17T17:11:37.459Z,98839.44
2022-11-17T17:14:08.222Z,98839.44
2022-11-17T17:16:37.992Z,98845.91
2022-11-17T17:19:06.691Z,98848.59
2022-11-17T17:21:35.556Z,98849.41
2022-11-17T17:24:03.694Z,98842.13
2022-11-17T17:26:33.160Z,98850.22
2022-11-17T17:29:01.583Z,98845.31
2022-11-17T17:31:31.943Z,98842.63
2022-11-17T17:34:01.341Z,98835.59
2022-11-17T17:36:30.586Z,98842.63
2022-11-17T17:38:59.793Z,98847.22
2022-11-17T17:41:29.901Z,98842.63
2022-11-17T17:43:58.951Z,98841.00
2022-11-17T17:46:27.806Z,98843.69
2022-11-17T17:48:56.578Z,98848.28
2022-11-17T17:51:27.740Z,98840.19
2022-11-17T17:53:57.952Z,98851.22
2022-11-17T17:56:26.945Z,98843.13
2022-11-17T17:58:55.515Z,98832.84
2022-11-17T18:01:25.049Z,98834.47
2022-11-17T18:03:54.656Z,98843.63
2022-11-17T18:06:24.029Z,98851.13
2022-11-17T18:08:53.336Z,98845.75
2022-11-17T18:11:23.087Z,98845.44
2022-11-17T18:13:52.301Z,98846.25
2022-11-17T18:16:21.479Z,98838.41
2022-11-17T18:18:50.344Z,98834.31
2022-11-17T18:21:19.359Z,98835.16
2022-11-17T18:23:48.131Z,98839.16
2022-11-17T18:26:19.626Z,98843.72
2022-11-17T18:28:52.236Z,98831.31
2022-11-17T18:31:21.070Z,98827.81
2022-11-17T18:33:52.450Z,98830.72
2022-11-17T18:36:21.176Z,98828.84
2022-11-17T18:38:50.208Z,98828.03
2022-11-17T18:41:19.990Z,98813.19
2022-11-17T18:43:48.694Z,98816.69
2022-11-17T18:46:18.972Z,98820.44
2022-11-17T18:48:48.503Z,98825.03
2022-11-17T18:51:19.935Z,98823.16
2022-11-17T18:53:51.222Z,98821.50
2022-11-17T18:56:22.739Z,98820.69
2022-11-17T18:58:53.253Z,98827.13
2022-11-17T19:01:21.876Z,98828.19
2022-11-17T19:03:50.869Z,98825.50
2022-11-17T19:06:20.283Z,98815.75
2022-11-17T19:08:48.364Z,98822.00
2022-11-17T19:11:17.453Z,98814.72
2022-11-17T19:13:46.925Z,98811.44
2022-11-17T19:16:16.187Z,98812.53
2022-11-17T19:18:44.942Z,98805.47
2022-11-17T19:21:15.308Z,98802.78
2022-11-17T19:23:49.562Z,98800.34
2022-11-17T19:26:21.709Z,98805.75
2022-11-17T19:28:51.252Z,98808.66
2022-11-17T19:31:21.467Z,98797.09
2022-11-17T19:33:49.694Z,98801.66
2022-11-17T19:36:19.416Z,98794.41
2022-11-17T19:38:48.844Z,98805.41
2022-11-17T19:41:18.921Z,98791.34
2022-11-17T19:43:46.916Z,98792.19
2022-11-17T19:46:19.377Z,98791.34
2022-11-17T19:48:47.395Z,98792.44
2022-11-17T19:51:18.337Z,98788.13
2022-11-17T19:53:46.275Z,98781.06
2022-11-17T19:56:17.637Z,98766.78
2022-11-17T19:58:45.682Z,98780.03
2022-11-17T20:01:14.977Z,98775.69
2022-11-17T20:03:44.469Z,98776.84
2022-11-17T20:06:15.300Z,98783.84
2022-11-17T20:08:43.396Z,98783.34
2022-11-17T20:11:13.996Z,98789.31
2022-11-17T20:13:42.378Z,98782.63
2022-11-17T20:16:13.148Z,98787.78
2022-11-17T20:18:41.871Z,98784.00
2022-11-17T20:21:12.180Z,98776.53
2022-11-17T20:23:40.454Z,98783.53
2022-11-17T20:26:10.124Z,98786.78
2022-11-17T20:28:38.385Z,98789.25
2022-11-17T20:31:10.620Z,98784.69
2022-11-17T20:33:38.835Z,98780.91
2022-11-17T20:36:07.568Z,98785.25
2022-11-17T20:38:38.334Z,98781.47
2022-11-17T20:41:06.460Z,98775.00
2022-11-17T20:43:35.355Z,98775.00
2022-11-17T20:46:03.478Z,98777.47
2022-11-17T20:48:33.184Z,98766.69
2022-11-17T20:51:01.884Z,98779.94
2022-11-17T20:53:30.821Z,98764.56
2022-11-17T20:56:00.585Z,98762.69
2022-11-17T20:58:32.355Z,98750.81
2022-11-17T21:01:00.606Z,98756.22
2022-11-17T21:03:30.403Z,98757.88
2022-11-17T21:06:02.028Z,98764.88
2022-11-17T21:08:31.871Z,98763.78
2022-11-17T21:11:02.109Z,98761.94
2022-11-17T21:13:32.395Z,98768.16
2022-11-17T21:16:04.721Z,98757.34
2022-11-17T21:18:33.411Z,98757.34
2022-11-17T21:21:02.907Z,98767.06
2022-11-17T21:23:32.452Z,98758.97
2022-11-17T21:26:05.536Z,98759.78
2022-11-17T21:28:34.209Z,98763.31
2022-11-17T21:31:07.925Z,98761.16
2022-11-17T21:33:36.977Z,98766.03
2022-11-17T21:36:05.393Z,98759.78
2022-11-17T21:38:33.384Z,98760.63
2022-11-17T21:41:06.799Z,98763.31
2022-11-17T21:43:36.547Z,98763.31
2022-11-17T21:46:05.516Z,98760.63
2022-11-17T21:48:34.151Z,98768.44
2022-11-17T21:51:03.370Z,98765.75
2022-11-17T21:53:31.358Z,98758.47
2022-11-17T21:56:03.271Z,98763.88
2022-11-17T21:58:33.482Z,98755.22
2022-11-17T22:01:08.147Z,98758.47
2022-11-17T22:03:36.146Z,98763.06
2022-11-17T22:06:09.424Z,98760.13
2022-11-17T22:08:43.807Z,98768.44
2022-11-17T22:11:15.386Z,98762.25
2022-11-17T22:13:47.354Z,98773.03
2022-11-17T22:16:16.106Z,98760.63
2022-11-17T22:18:45.487Z,98766.03
2022-11-17T22:21:15.374Z,98762.47
2022-11-17T22:23:43.444Z,98760.63
2022-11-17T22:26:12.159Z,98760.88
2022-11-17T22:28:40.180Z,98760.88
2022-11-17T22:31:10.844Z,98763.56
2022-11-17T22:33:40.090Z,98765.44
2022-11-17T22:36:09.649Z,98766.50
2022-11-17T22:38:37.689Z,98761.09
2022-11-17T22:41:07.373Z,98759.47
2022-11-17T22:43:35.342Z,98768.16
2022-11-17T22:46:04.575Z,98761.09
2022-11-17T22:48:33.934Z,98757.59
2022-11-17T22:51:02.468Z,98761.09
2022-11-17T22:53:30.371Z,98753.84
2022-11-17T22:56:03.095Z,98755.72
2022-11-17T22:58:31.336Z,98747.63
2022-11-17T23:01:00.074Z,98753.00
2022-11-17T23:03:28.087Z,98755.72
2022-11-17T23:06:01.847Z,98751.97
2022-11-17T23:08:29.888Z,98745.78
2022-11-17T23:11:29.758Z,98739.53
2022-11-17T23:13:49.457Z,98742.22
2022-11-17T23:16:17.636Z,98744.94
2022-11-17T23:18:45.600Z,98739.53
2022-11-17T23:21:15.282Z,98736.84
2022-11-17T23:23:43.174Z,98725.00
2022-11-17T23:26:12.935Z,98724.19
2022-11-17T23:28:41.423Z,98721.75
2022-11-17T23:31:11.555Z,98716.94
2022-11-17T23:33:40.548Z,98723.38
2022-11-17T23:36:10.355Z,98716.13
2022-11-17T23:38:39.811Z,98715.28
2022-11-17T23:41:08.538Z,98712.56
2022-11-17T23:43:36.862Z,98711.78
2022-11-17T23:46:05.226Z,98703.94
2022-11-17T23:48:33.212Z,98706.38
2022-11-17T23:51:05.560Z,98697.47
2022-11-17T23:53:33.561Z,98698.56
2022-11-17T23:56:03.156Z,98701.25
2022-11-17T23:58:31.093Z,98700.19
